createdAt,value
2022-09-10T00:00:59.743Z,87.77
2022-09-10T00:03:01.553Z,87.85
2022-09-10T00:05:02.584Z,87.82
2022-09-10T00:07:04.123Z,87.97
2022-09-10T00:09:05.317Z,87.96
2022-09-10T00:13:08.146Z,87.88
2022-09-10T00:15:09.414Z,87.72
2022-09-10T00:19:12.856Z,87.79
2022-09-10T00:21:14.645Z,87.84
2022-09-10T00:23:16.394Z,88.16
2022-09-10T00:25:17.845Z,88.41
2022-09-10T00:27:18.820Z,88.32
2022-09-10T00:29:20.584Z,88.42
2022-09-10T00:31:22.037Z,88.28
2022-09-10T00:33:23.316Z,88.44
2022-09-10T00:35:24.267Z,88.6
2022-09-10T00:37:25.766Z,88.23
2022-09-10T00:38:09.590Z,87.96
2022-09-10T00:40:11.155Z,87.78
2022-09-10T00:42:12.179Z,88.54
2022-09-10T00:44:13.917Z,88.63
2022-09-10T00:48:16.700Z,87.96
2022-09-10T00:50:17.907Z,87.81
2022-09-10T00:52:19.473Z,87.94
2022-09-10T00:56:22.171Z,88.29
2022-09-10T00:58:23.435Z,88.23
2022-09-10T01:00:24.595Z,87.61
2022-09-10T01:02:26.140Z,87.84
2022-09-10T01:06:28.089Z,87.45
2022-09-10T01:08:29.944Z,87.08
2022-09-10T01:10:30.956Z,86.86
2022-09-10T01:12:35.777Z,86.73
2022-09-10T01:14:34.541Z,86.84
2022-09-10T01:16:36.020Z,86.86
2022-09-10T01:18:37.857Z,86.85
2022-09-10T01:20:38.794Z,86.58
2022-09-10T01:22:40.175Z,86.83
2022-09-10T01:24:41.417Z,86.63
2022-09-10T01:26:42.840Z,86.69
2022-09-10T01:28:44.773Z,86.67
2022-09-10T01:30:46.136Z,86.92
2022-09-10T01:32:47.682Z,86.93
2022-09-10T01:34:49.586Z,86.94
2022-09-10T01:36:51.244Z,86.96
2022-09-10T01:38:52.500Z,87.13
2022-09-10T01:40:53.840Z,86.85
2022-09-10T01:42:54.984Z,86.57
2022-09-10T01:44:56.323Z,86.86
2022-09-10T01:46:57.838Z,86.81
2022-09-10T01:51:00.399Z,86.89
2022-09-10T01:53:02.058Z,87.03
2022-09-10T01:55:03.528Z,87.26
2022-09-10T01:57:04.797Z,87.44
2022-09-10T01:59:06.051Z,87.55
2022-09-10T02:01:07.964Z,87.27
2022-09-10T02:03:08.844Z,87.2
2022-09-10T02:05:10.383Z,86.98
2022-09-10T02:07:11.965Z,87.15
2022-09-10T02:09:12.901Z,87.56
2022-09-10T02:11:14.388Z,87.36
2022-09-10T02:13:16.061Z,87.39
2022-09-10T02:15:17.451Z,87.03
2022-09-10T02:17:18.701Z,86.92
2022-09-10T02:19:19.653Z,86.74
2022-09-10T02:23:22.365Z,86.7
2022-09-10T02:27:25.367Z,86.81
2022-09-10T02:31:27.945Z,86.56
2022-09-10T02:33:29.450Z,86.28
2022-09-10T02:35:31.264Z,86.17
2022-09-10T02:37:32.266Z,86.26
2022-09-10T02:39:33.944Z,85.99
2022-09-10T02:41:35.822Z,86.26
2022-09-10T02:43:36.716Z,86.44
2022-09-10T02:45:38.619Z,86.27
2022-09-10T02:47:40.333Z,86.13
2022-09-10T02:51:43.487Z,86.4
2022-09-10T02:53:45.234Z,86.25
2022-09-10T02:55:46.653Z,86.37
2022-09-10T02:57:47.604Z,86.13
2022-09-10T02:59:49.394Z,86.12
2022-09-10T03:01:50.661Z,86.25
2022-09-10T03:03:52.488Z,86.32
2022-09-10T03:05:54.333Z,86.1
2022-09-10T03:07:55.757Z,85.94
2022-09-10T03:09:56.680Z,86.15
2022-09-10T03:13:59.218Z,86.43
2022-09-10T03:16:00.810Z,86.39
2022-09-10T03:18:02.082Z,86.37
2022-09-10T03:20:03.199Z,86.28
2022-09-10T03:22:04.845Z,86.54
2022-09-10T03:24:08.146Z,86.35
2022-09-10T03:26:08.020Z,86.42
2022-09-10T03:28:09.343Z,86.39
2022-09-10T03:30:10.713Z,86.12
2022-09-10T03:32:12.074Z,85.99
2022-09-10T03:34:13.499Z,86.02
2022-09-10T03:36:15.208Z,86.01
2022-09-10T03:38:16.187Z,86.08
2022-09-10T03:40:17.408Z,86.17
2022-09-10T03:42:18.480Z,86.12
2022-09-10T03:44:20.308Z,86.33
2022-09-10T03:46:21.819Z,86.53
2022-09-10T03:48:23.703Z,87.47
2022-09-10T03:50:24.882Z,87.68
2022-09-10T03:52:26.597Z,88
2022-09-10T03:54:27.632Z,87.91
2022-09-10T03:56:28.700Z,88.22
2022-09-10T03:58:30.552Z,87.81
2022-09-10T04:00:31.839Z,87.79
2022-09-10T04:02:33.448Z,87.94
2022-09-10T04:04:34.372Z,87.9
2022-09-10T04:06:36.254Z,87.96
2022-09-10T04:08:37.437Z,88.16
2022-09-10T04:12:40.338Z,88.29
2022-09-10T04:14:42.022Z,88.32
2022-09-10T04:16:43.688Z,88.54
2022-09-10T04:18:44.692Z,88.69
2022-09-10T04:20:46.246Z,88.49
2022-09-10T04:22:47.987Z,88.69
2022-09-10T04:24:49.268Z,88.84
2022-09-10T04:26:51.094Z,88.79
2022-09-10T04:28:52.347Z,89.25
2022-09-10T04:30:54.219Z,89.09
2022-09-10T04:32:55.832Z,89.13
2022-09-10T04:34:57.232Z,89.25
2022-09-10T04:36:58.941Z,89.45
2022-09-10T04:39:00.076Z,89.63
2022-09-10T04:41:01.486Z,89.64
2022-09-10T04:43:03.310Z,89.71
2022-09-10T04:45:04.784Z,89.64
2022-09-10T04:47:06.091Z,89.56
2022-09-10T04:49:07.434Z,89.39
2022-09-10T04:55:12.123Z,89.49
2022-09-10T04:57:13.312Z,89.42
2022-09-10T04:59:15.188Z,89.16
2022-09-10T05:01:16.643Z,89.22
2022-09-10T05:03:18.459Z,89.44
2022-09-10T05:05:28.795Z,89.26
2022-09-10T05:07:21.313Z,89.26
2022-09-10T05:11:24.155Z,89.08
2022-09-10T05:13:25.450Z,89.17
2022-09-10T05:15:26.382Z,89.28
2022-09-10T05:17:27.571Z,89.14
2022-09-10T05:19:28.973Z,89.31
2022-09-10T05:21:30.643Z,89.17
2022-09-10T05:23:31.751Z,89.17
2022-09-10T05:27:34.857Z,89.01
2022-09-10T05:29:36.366Z,88.89
2022-09-10T05:31:37.446Z,89.13
2022-09-10T05:33:38.928Z,89.16
2022-09-10T05:37:41.396Z,89.11
2022-09-10T05:39:42.815Z,88.92
2022-09-10T05:41:44.152Z,88.95
2022-09-10T05:43:45.546Z,88.79
2022-09-10T05:45:46.513Z,89.04
2022-09-10T05:47:47.889Z,88.62
2022-09-10T05:49:49.744Z,88.72
2022-09-10T05:51:51.275Z,88.63
2022-09-10T05:55:54.198Z,88.45
2022-09-10T05:57:56.072Z,88.39
2022-09-10T05:59:57.904Z,88.49
2022-09-10T06:01:59.774Z,88.57
2022-09-10T06:04:01.211Z,89.08
2022-09-10T06:06:02.469Z,88.89
2022-09-10T06:08:07.970Z,89.04
2022-09-10T06:10:05.064Z,89.43
2022-09-10T06:12:06.153Z,89.59
2022-09-10T06:14:07.927Z,89.68
2022-09-10T06:16:09.434Z,89.47
2022-09-10T06:18:10.566Z,89.82
2022-09-10T06:20:11.944Z,89.57
2022-09-10T06:22:13.104Z,89.7
2022-09-10T06:26:15.800Z,90.39
2022-09-10T06:28:17.605Z,91.02
2022-09-10T06:30:19.135Z,91.68
2022-09-10T06:32:20.394Z,92.01
2022-09-10T06:34:21.421Z,91.61
2022-09-10T06:36:23.033Z,91.83
2022-09-10T06:38:23.937Z,91.7
2022-09-10T06:40:25.765Z,92.06
2022-09-10T06:42:27.567Z,92.11
2022-09-10T06:44:28.899Z,91.15
2022-09-10T06:47:03.085Z,91.49
2022-09-10T06:48:38.513Z,90.88
2022-09-10T06:50:33.536Z,90.84
2022-09-10T06:52:34.974Z,90.96
2022-09-10T06:54:36.633Z,91.22
2022-09-10T06:56:38.374Z,91.41
2022-09-10T06:58:39.597Z,91.35
2022-09-10T07:00:41.044Z,91.34
2022-09-10T07:02:42.058Z,91.51
2022-09-10T07:04:43.117Z,91.51
2022-09-10T07:06:44.782Z,91.98
2022-09-10T07:08:46.219Z,91.47
2022-09-10T07:10:47.413Z,91.34
2022-09-10T07:12:48.994Z,91.51
2022-09-10T07:14:50.301Z,91.25
2022-09-10T07:18:53.105Z,91.47
2022-09-10T07:20:54.303Z,91.51
2022-09-10T07:22:55.283Z,91.54
2022-09-10T07:23:39.080Z,91.67
2022-09-10T07:25:40.129Z,91.89
2022-09-10T07:27:41.916Z,91.7
2022-09-10T07:29:43.017Z,91.16
2022-09-10T07:31:45.783Z,91.6
2022-09-10T07:33:46.315Z,92.02
2022-09-10T07:35:48.020Z,91.89
2022-09-10T07:37:49.471Z,92.3
2022-09-10T07:39:50.787Z,92.24
2022-09-10T07:41:51.681Z,91.95
2022-09-10T07:43:53.243Z,92.07
2022-09-10T07:45:54.774Z,91.5
2022-09-10T07:47:56.637Z,91.89
2022-09-10T07:49:58.156Z,92.07
2022-09-10T07:52:00.068Z,92.38
2022-09-10T07:56:02.216Z,91.99
2022-09-10T07:58:03.789Z,92.16
2022-09-10T08:00:04.837Z,91.84
2022-09-10T08:02:06.016Z,92.04
2022-09-10T08:04:06.911Z,91.69
2022-09-10T08:06:08.017Z,91.44
2022-09-10T08:08:09.719Z,91.85
2022-09-10T08:10:10.879Z,91.98
2022-09-10T08:12:12.426Z,91.79
2022-09-10T08:16:15.355Z,92.58
2022-09-10T08:18:16.816Z,92.74
2022-09-10T08:20:18.019Z,92.59
2022-09-10T08:22:19.013Z,92.34
2022-09-10T08:24:20.595Z,93.01
2022-09-10T08:26:21.579Z,93.6
2022-09-10T08:28:25.441Z,93.55
2022-09-10T08:30:25.143Z,93.51
2022-09-10T08:32:26.293Z,93.74
2022-09-10T08:34:27.254Z,93.6
2022-09-10T08:36:29.087Z,93.87
2022-09-10T08:38:30.549Z,93.41
2022-09-10T08:40:32.170Z,93.98
2022-09-10T08:44:34.976Z,94.27
2022-09-10T08:46:36.269Z,94.33
2022-09-10T08:48:37.334Z,93.22
2022-09-10T08:50:38.234Z,93.08
2022-09-10T08:52:39.257Z,93.91
2022-09-10T08:54:40.253Z,93.85
2022-09-10T08:56:41.908Z,93.33
2022-09-10T08:58:43.251Z,93.24
2022-09-10T09:00:44.140Z,93.01
2022-09-10T09:02:49.087Z,92.65
2022-09-10T09:04:46.252Z,92.89
2022-09-10T09:06:47.697Z,93.13
2022-09-10T09:08:49.206Z,93.06
2022-09-10T09:10:50.161Z,92.61
2022-09-10T09:13:01.010Z,92.09
2022-09-10T09:14:53.637Z,92.05
2022-09-10T09:16:55.295Z,91.71
2022-09-10T09:18:56.965Z,91.7
2022-09-10T09:20:58.020Z,91.78
2022-09-10T09:22:59.023Z,92.26
2022-09-10T09:25:00.165Z,92.45
2022-09-10T09:27:01.187Z,92.88
2022-09-10T09:29:02.666Z,92.67
2022-09-10T09:31:07.523Z,92.71
2022-09-10T09:33:05.144Z,92.7
2022-09-10T09:37:08.370Z,92.4
2022-09-10T09:39:10.063Z,92.86
2022-09-10T09:41:11.208Z,92.34
2022-09-10T09:43:12.751Z,92.18
2022-09-10T09:45:13.620Z,91.86
2022-09-10T09:47:14.637Z,89.59
2022-09-10T09:49:15.745Z,90.35
2022-09-10T09:51:16.922Z,90.64
2022-09-10T09:53:18.266Z,91.4
2022-09-10T09:55:19.384Z,91.29
2022-09-10T09:57:20.722Z,91.39
2022-09-10T09:59:22.209Z,89.96
2022-09-10T10:01:24.019Z,89.4
2022-09-10T10:03:25.059Z,90.17
2022-09-10T10:05:25.970Z,89.45
2022-09-10T10:07:27.771Z,88.42
2022-09-10T10:09:28.980Z,87.91
2022-09-10T10:11:29.875Z,88.17
2022-09-10T10:13:30.832Z,87.07
2022-09-10T10:17:33.675Z,85.93
2022-09-10T10:19:35.107Z,85.77
2022-09-10T10:21:36.333Z,86.04
2022-09-10T10:23:37.817Z,86.16
2022-09-10T10:25:39.402Z,86.28
2022-09-10T10:27:40.534Z,84.34
2022-09-10T10:29:41.862Z,85.03
2022-09-10T10:31:43.003Z,84.09
2022-09-10T10:33:44.192Z,84.4
2022-09-10T10:35:45.619Z,83.49
2022-09-10T10:37:47.299Z,81.91
2022-09-10T10:39:48.387Z,82.22
2022-09-10T10:41:49.971Z,83.09
2022-09-10T10:43:51.347Z,82.13
2022-09-10T10:47:53.412Z,80.27
2022-09-10T10:49:55.223Z,78.53
2022-09-10T10:51:56.378Z,79.68
2022-09-10T10:53:57.441Z,78.81
2022-09-10T10:55:58.890Z,78.21
2022-09-10T10:57:59.731Z,79
2022-09-10T11:00:01.121Z,79.04
2022-09-10T11:02:02.100Z,78.06
2022-09-10T11:04:02.942Z,76.78
2022-09-10T11:06:04.694Z,78.12
2022-09-10T11:08:05.991Z,76.57
2022-09-10T11:10:07.107Z,76.78
2022-09-10T11:12:08.790Z,76.69
2022-09-10T11:14:18.359Z,75.93
2022-09-10T11:16:12.126Z,77.4
2022-09-10T11:18:13.924Z,76.36
2022-09-10T11:20:28.239Z,76.55
2022-09-10T11:24:17.890Z,76.11
2022-09-10T11:26:18.879Z,74.92
2022-09-10T11:28:20.347Z,74.49
2022-09-10T11:30:21.508Z,73.04
2022-09-10T11:34:24.182Z,72.68
2022-09-10T11:36:25.778Z,72.34
2022-09-10T11:38:27.386Z,71.18
2022-09-10T11:40:29.498Z,71.87
2022-09-10T11:42:30.305Z,71.2
2022-09-10T11:44:34.549Z,71.28
2022-09-10T11:46:33.034Z,71.93
2022-09-10T11:48:33.849Z,70.94
2022-09-10T11:50:35.220Z,71.42
2022-09-10T11:52:36.982Z,70.46
2022-09-10T11:54:38.619Z,72.32
2022-09-10T11:56:39.773Z,71.12
2022-09-10T12:00:42.637Z,71.71
2022-09-10T12:02:43.815Z,71.06
2022-09-10T12:04:47.505Z,71.31
2022-09-10T12:06:46.384Z,72.56
2022-09-10T12:08:47.802Z,70.6
2022-09-10T12:10:49.184Z,68.56
2022-09-10T12:12:50.180Z,68.16
2022-09-10T12:14:51.320Z,69.79
2022-09-10T12:16:52.507Z,68.55
2022-09-10T12:18:53.352Z,69.53
2022-09-10T12:20:54.470Z,69.58
2022-09-10T12:22:55.854Z,69.52
2022-09-10T12:24:57.661Z,70.25
2022-09-10T12:26:58.914Z,71.27
2022-09-10T12:29:00.079Z,71.1
2022-09-10T12:31:01.061Z,71.75
2022-09-10T12:33:02.457Z,71.59
2022-09-10T12:35:04.053Z,72.38
2022-09-10T12:37:05.013Z,71.76
2022-09-10T12:39:06.275Z,70.22
2022-09-10T12:41:07.925Z,70.12
2022-09-10T12:43:09.348Z,68.27
2022-09-10T12:45:10.435Z,69.37
2022-09-10T12:47:12.182Z,70.04
2022-09-10T12:49:13.872Z,69.95
2022-09-10T12:53:16.103Z,67.55
2022-09-10T12:55:17.440Z,67.16
2022-09-10T12:57:18.844Z,67.73
2022-09-10T12:59:20.103Z,65.19
2022-09-10T13:03:23.120Z,66.91
2022-09-10T13:05:24.052Z,67.64
2022-09-10T13:07:24.906Z,66.04
2022-09-10T13:09:26.635Z,67.11
2022-09-10T13:11:27.724Z,68.32
2022-09-10T13:13:29.345Z,68.59
2022-09-10T13:15:31.876Z,69.38
2022-09-10T13:17:33.312Z,69.58
2022-09-10T13:19:34.600Z,70.35
2022-09-10T13:21:36.012Z,71.56
2022-09-10T13:25:39.273Z,72.57
2022-09-10T13:27:40.350Z,72.44
2022-09-10T13:29:42.119Z,71.53
2022-09-10T13:31:43.388Z,69.98
2022-09-10T13:35:45.472Z,69.53
2022-09-10T13:37:46.730Z,70.46
2022-09-10T13:39:48.893Z,70.58
2022-09-10T13:41:49.838Z,70.13
2022-09-10T13:45:53.380Z,71.18
2022-09-10T13:47:54.202Z,71.12
2022-09-10T13:49:55.794Z,72.2
2022-09-10T13:51:57.175Z,71.58
2022-09-10T13:53:58.696Z,71.05
2022-09-10T13:55:59.981Z,68.21
2022-09-10T13:58:01.261Z,68.73
2022-09-10T14:02:03.482Z,67.73
2022-09-10T14:04:04.834Z,68.58
2022-09-10T14:06:06.092Z,69.13
2022-09-10T14:08:07.299Z,68.83
2022-09-10T14:08:51.002Z,69.24
2022-09-10T14:10:52.106Z,69.89
2022-09-10T14:12:53.098Z,71.74
2022-09-10T14:14:54.698Z,71.27
2022-09-10T14:16:55.682Z,72.23
2022-09-10T14:18:56.797Z,71.27
2022-09-10T14:22:58.718Z,72.02
2022-09-10T14:25:00.014Z,72.3
2022-09-10T14:27:01.595Z,73.37
2022-09-10T14:29:02.678Z,73.27
2022-09-10T14:33:04.844Z,73.08
2022-09-10T14:35:07.775Z,71.71
2022-09-10T14:37:07.669Z,71.12
2022-09-10T14:39:08.723Z,73.09
2022-09-10T14:41:09.764Z,72.96
2022-09-10T14:43:12.281Z,71.79
2022-09-10T14:45:13.335Z,71.58
2022-09-10T14:47:15.140Z,70.33
2022-09-10T14:49:16.576Z,72.74
2022-09-10T14:51:17.903Z,73.41
2022-09-10T14:53:19.670Z,74.8
2022-09-10T14:55:21.057Z,75.53
2022-09-10T14:57:22.129Z,77.12
2022-09-10T14:59:24.043Z,78.56
2022-09-10T15:01:24.951Z,79.25
2022-09-10T15:03:26.159Z,80.16
2022-09-10T15:05:27.907Z,80.13
2022-09-10T15:07:29.331Z,81.61
2022-09-10T15:11:32.014Z,84.46
2022-09-10T15:13:32.879Z,84.36
2022-09-10T15:15:34.273Z,83.22
2022-09-10T15:17:35.805Z,83.69
2022-09-10T15:19:37.090Z,84.47
2022-09-10T15:21:38.480Z,86.05
2022-09-10T15:23:40.110Z,86.36
2022-09-10T15:25:41.349Z,86
2022-09-10T15:27:42.619Z,86.13
2022-09-10T15:29:44.241Z,87.09
2022-09-10T15:31:45.727Z,88.72
2022-09-10T15:33:47.412Z,87.87
2022-09-10T15:35:48.759Z,85.44
2022-09-10T15:37:50.563Z,86.04
2022-09-10T15:39:52.303Z,85.05
2022-09-10T15:41:53.740Z,84.4
2022-09-10T15:43:55.113Z,84.51
2022-09-10T15:45:56.768Z,82.78
2022-09-10T15:47:57.781Z,81.35
2022-09-10T15:49:59.590Z,82.38
2022-09-10T15:52:00.554Z,82.15
2022-09-10T15:54:05.097Z,81.05
2022-09-10T15:56:03.156Z,81.91
2022-09-10T15:58:04.512Z,82.94
2022-09-10T16:00:05.686Z,81.66
2022-09-10T16:04:09.162Z,80.04
2022-09-10T16:06:10.724Z,82
2022-09-10T16:08:11.847Z,83.08
2022-09-10T16:10:12.950Z,82.7
2022-09-10T16:12:14.015Z,83.72
2022-09-10T16:14:15.789Z,83.88
2022-09-10T16:16:16.822Z,84.07
2022-09-10T16:18:18.156Z,84.22
2022-09-10T16:20:19.567Z,84.78
2022-09-10T16:22:21.007Z,83.69
2022-09-10T16:24:22.034Z,84.54
2022-09-10T16:26:23.292Z,84.64
2022-09-10T16:28:24.570Z,85.11
2022-09-10T16:30:27.240Z,85.4
2022-09-10T16:32:28.844Z,85.6
2022-09-10T16:34:30.199Z,85.56
2022-09-10T16:36:31.241Z,85.19
2022-09-10T16:38:32.986Z,84.4
2022-09-10T16:40:34.728Z,83.16
2022-09-10T16:42:36.147Z,81.88
2022-09-10T16:46:38.509Z,81.94
2022-09-10T16:48:40.351Z,82.39
2022-09-10T16:50:41.446Z,82.88
2022-09-10T16:52:42.931Z,82.62
2022-09-10T16:54:44.134Z,83.37
2022-09-10T16:56:45.456Z,82.91
2022-09-10T16:58:46.968Z,82.48
2022-09-10T17:00:48.670Z,82.85
2022-09-10T17:02:49.614Z,82.32
2022-09-10T17:04:51.397Z,82.96
2022-09-10T17:06:53.014Z,83.38
2022-09-10T17:08:54.703Z,83.95
2022-09-10T17:10:56.510Z,84.5
2022-09-10T17:12:58.284Z,84.84
2022-09-10T17:15:00.132Z,85.02
2022-09-10T17:19:02.865Z,86.08
2022-09-10T17:21:04.508Z,86.5
2022-09-10T17:23:05.677Z,86.7
2022-09-10T17:25:06.973Z,87.07
2022-09-10T17:29:10.370Z,87.72
2022-09-10T17:31:12.251Z,88.02
2022-09-10T17:35:14.859Z,88.24
2022-09-10T17:37:15.775Z,88.21
2022-09-10T17:39:16.881Z,88.55
2022-09-10T17:41:18.715Z,88.79
2022-09-10T17:43:21.524Z,88.88
2022-09-10T17:45:21.486Z,88.91
2022-09-10T17:47:22.760Z,88.52
2022-09-10T17:49:24.325Z,88.69
2022-09-10T17:51:25.301Z,88.68
2022-09-10T17:53:26.433Z,88.76
2022-09-10T17:55:31.700Z,88.8
2022-09-10T17:57:28.851Z,88.71
2022-09-10T17:59:30.253Z,88.38
2022-09-10T18:01:31.480Z,87.49
2022-09-10T18:03:32.719Z,86.81
2022-09-10T18:05:34.407Z,86.99
2022-09-10T18:07:35.955Z,86.98
2022-09-10T18:09:37.210Z,86.73
2022-09-10T18:11:38.289Z,87
2022-09-10T18:15:41.441Z,87.24
2022-09-10T18:17:42.701Z,87.11
2022-09-10T18:19:44.004Z,87.19
2022-09-10T18:21:45.583Z,87.2
2022-09-10T18:23:47.415Z,87.29
2022-09-10T18:27:49.536Z,87.33
2022-09-10T18:29:51.395Z,87.19
2022-09-10T18:31:52.594Z,87.1
2022-09-10T18:33:53.814Z,87.07
2022-09-10T18:35:55.112Z,87.21
2022-09-10T18:37:56.900Z,87.19
2022-09-10T18:39:58.282Z,87.53
2022-09-10T18:41:59.279Z,87.84
2022-09-10T18:44:01.064Z,87.73
2022-09-10T18:46:02.592Z,88.12
2022-09-10T18:48:04.364Z,88.23
2022-09-10T18:50:06.268Z,88.23
2022-09-10T18:52:07.392Z,88.24
2022-09-10T18:54:08.508Z,88.52
2022-09-10T18:56:10.201Z,88.85
2022-09-10T18:58:11.948Z,89.27
2022-09-10T19:00:13.122Z,89.94
2022-09-10T19:02:14.154Z,90.68
2022-09-10T19:04:24.615Z,90.97
2022-09-10T19:06:17.393Z,91.12
2022-09-10T19:08:18.950Z,91.49
2022-09-10T19:10:20.405Z,91.67
2022-09-10T19:12:21.453Z,91.67
2022-09-10T19:14:22.377Z,91.22
2022-09-10T19:16:24.098Z,91.48
2022-09-10T19:18:25.815Z,91.9
2022-09-10T19:20:27.521Z,91.85
2022-09-10T19:22:28.645Z,91.88
2022-09-10T19:24:44.410Z,91.96
2022-09-10T19:26:40.248Z,92.22
2022-09-10T19:28:32.607Z,92.43
2022-09-10T19:30:35.740Z,92.56
2022-09-10T19:32:35.581Z,92.75
2022-09-10T19:34:36.625Z,93
2022-09-10T19:36:38.109Z,92.7
2022-09-10T19:38:39.417Z,92.64
2022-09-10T19:40:40.815Z,92.51
2022-09-10T19:42:42.108Z,91.97
2022-09-10T19:44:43.806Z,92.13
2022-09-10T19:46:44.990Z,92.73
2022-09-10T19:48:46.722Z,92.5
2022-09-10T19:52:49.059Z,92.96
2022-09-10T19:54:50.163Z,93.06
2022-09-10T19:56:51.961Z,93.06
2022-09-10T19:58:53.251Z,93.37
2022-09-10T20:02:55.987Z,93.75
2022-09-10T20:04:57.540Z,93.86
2022-09-10T20:06:59.406Z,94.12
2022-09-10T20:09:00.796Z,93.96
2022-09-10T20:11:02.358Z,93.9
2022-09-10T20:13:03.844Z,93.81
2022-09-10T20:15:05.417Z,93.92
2022-09-10T20:17:06.761Z,94.02
2022-09-10T20:19:08.338Z,94.12
2022-09-10T20:21:09.652Z,93.81
2022-09-10T20:23:10.896Z,93.7
2022-09-10T20:25:11.871Z,93.26
2022-09-10T20:27:12.764Z,93.41
2022-09-10T20:29:13.926Z,93.5
2022-09-10T20:31:14.923Z,93.56
2022-09-10T20:33:15.942Z,93.22
2022-09-10T20:35:16.858Z,93.38
2022-09-10T20:37:18.255Z,92.96
2022-09-10T20:39:19.257Z,93.18
2022-09-10T20:41:20.268Z,93.51
2022-09-10T20:43:21.591Z,93.69
2022-09-10T20:45:22.897Z,93.75
2022-09-10T20:47:24.362Z,93.82
2022-09-10T20:51:27.255Z,93.96
2022-09-10T20:53:28.389Z,93.99
2022-09-10T20:54:37.349Z,93.93
2022-09-10T20:56:38.860Z,93.84
2022-09-10T20:58:40.138Z,94.01
2022-09-10T21:02:43.236Z,93.33
2022-09-10T21:04:44.679Z,93.5
2022-09-10T21:06:46.491Z,93.44
2022-09-10T21:08:47.686Z,93.59
2022-09-10T21:10:48.585Z,93.08
2022-09-10T21:12:50.118Z,93.27
2022-09-10T21:14:51.935Z,93.15
2022-09-10T21:16:53.332Z,93.04
2022-09-10T21:18:54.919Z,93.33
2022-09-10T21:20:56.173Z,93.3
2022-09-10T21:22:57.375Z,93.37
2022-09-10T21:24:58.580Z,93.35
2022-09-10T21:27:00.447Z,93.27
2022-09-10T21:29:01.667Z,93.19
2022-09-10T21:31:03.550Z,92.94
2022-09-10T21:33:05.123Z,93.06
2022-09-10T21:35:06.712Z,93.12
2022-09-10T21:37:07.976Z,93.14
2022-09-10T21:39:08.881Z,93.54
2022-09-10T21:41:10.177Z,93.57
2022-09-10T21:43:11.515Z,93.15
2022-09-10T21:45:13.272Z,93.4
2022-09-10T21:47:14.579Z,93.32
2022-09-10T21:49:16.150Z,92.72
2022-09-10T21:51:17.247Z,93.08
2022-09-10T21:55:20.120Z,92.78
2022-09-10T21:57:20.650Z,92.8
2022-09-10T21:59:21.894Z,92.89
2022-09-10T22:01:23.651Z,92.64
2022-09-10T22:03:24.976Z,92.8
2022-09-10T22:05:26.608Z,92.97
2022-09-10T22:07:27.819Z,93.21
2022-09-10T22:09:29.383Z,92.78
2022-09-10T22:11:30.816Z,92.75
2022-09-10T22:13:32.345Z,93.06
2022-09-10T22:15:33.644Z,93.09
2022-09-10T22:17:34.990Z,93.17
2022-09-10T22:19:36.754Z,92.5
2022-09-10T22:21:37.932Z,92.93
2022-09-10T22:23:39.400Z,93.22
2022-09-10T22:25:40.338Z,93.11
2022-09-10T22:27:42.073Z,93.36
2022-09-10T22:29:43.188Z,93.55
2022-09-10T22:31:44.396Z,93.5
2022-09-10T22:33:45.626Z,93.3
2022-09-10T22:35:46.808Z,93.42
2022-09-10T22:37:48.574Z,93.82
2022-09-10T22:39:50.257Z,94.2
2022-09-10T22:41:51.843Z,94.55
2022-09-10T22:43:53.213Z,94.58
2022-09-10T22:45:54.143Z,94.64
2022-09-10T22:47:55.125Z,94.69
2022-09-10T22:49:56.046Z,94.82
2022-09-10T22:51:57.458Z,94.87
2022-09-10T22:53:58.954Z,94.89
2022-09-10T22:56:00.527Z,94.85
2022-09-10T22:58:02.396Z,94.79
2022-09-10T23:00:03.362Z,94.61
2022-09-10T23:02:04.765Z,94.26
2022-09-10T23:04:06.006Z,94.4
2022-09-10T23:06:07.316Z,94.29
2022-09-10T23:08:08.333Z,94.34
2022-09-10T23:10:09.326Z,94.6
2022-09-10T23:12:10.467Z,94.77
2022-09-10T23:14:12.167Z,94.8
2022-09-10T23:16:13.397Z,94.77
2022-09-10T23:18:15.234Z,94.81
2022-09-10T23:20:16.744Z,94.69
2022-09-10T23:22:18.371Z,94.43
2022-09-10T23:26:21.651Z,94.56
2022-09-10T23:28:23.533Z,94.42
2022-09-10T23:30:24.586Z,94.31
2022-09-10T23:32:25.942Z,93.97
2022-09-10T23:36:29.387Z,94.23
2022-09-10T23:38:30.803Z,94.34
2022-09-10T23:40:34.142Z,94.53
2022-09-10T23:42:33.133Z,94.45
2022-09-10T23:44:34.719Z,94.53
2022-09-10T23:46:36.547Z,94.55
2022-09-10T23:48:37.452Z,94.92
2022-09-10T23:50:38.483Z,94.99
2022-09-10T23:52:39.593Z,95
2022-09-10T23:54:41.104Z,95.18
2022-09-10T23:56:42.341Z,95.4
2022-09-10T23:58:43.479Z,95.57
